sensor_id;sensor_type;location;lat;lon;timestamp;pressure;altitude;pressure_sealevel;temperature;humidity
9225;BME280;4647;48.072;11.616;2023-01-23T00:01:45;96228.88;;;-5.95;87.36
9225;BME280;4647;48.072;11.616;2023-01-23T00:04:14;96238.63;;;-5.96;87.23
9225;BME280;4647;48.072;11.616;2023-01-23T00:06:42;96237.38;;;-5.79;87.49
9225;BME280;4647;48.072;11.616;2023-01-23T00:09:11;96249.72;;;-5.75;87.97
9225;BME280;4647;48.072;11.616;2023-01-23T00:11:39;96243.38;;;-5.74;88.52
9225;BME280;4647;48.072;11.616;2023-01-23T00:14:08;96248.16;;;-5.76;88.23
9225;BME280;4647;48.072;11.616;2023-01-23T00:16:37;96241.88;;;-5.80;87.96
9225;BME280;4647;48.072;11.616;2023-01-23T00:19:09;96240.31;;;-5.81;87.73
9225;BME280;4647;48.072;11.616;2023-01-23T00:21:38;96250.66;;;-5.84;88.08
9225;BME280;4647;48.072;11.616;2023-01-23T00:24:09;96242.72;;;-5.84;88.34
9225;BME280;4647;48.072;11.616;2023-01-23T00:26:39;96249.22;;;-5.77;88.00
9225;BME280;4647;48.072;11.616;2023-01-23T00:29:07;96244.78;;;-5.81;87.93
9225;BME280;4647;48.072;11.616;2023-01-23T00:31:37;96245.22;;;-5.93;88.67
9225;BME280;4647;48.072;11.616;2023-01-23T00:34:11;96248.75;;;-6.03;88.83
9225;BME280;4647;48.072;11.616;2023-01-23T00:36:42;96245.72;;;-6.15;89.19
9225;BME280;4647;48.072;11.616;2023-01-23T00:39:14;96236.97;;;-6.10;89.15
9225;BME280;4647;48.072;11.616;2023-01-23T00:41:44;96232.94;;;-6.03;88.93
9225;BME280;4647;48.072;11.616;2023-01-23T00:44:13;96238.72;;;-6.01;88.98
9225;BME280;4647;48.072;11.616;2023-01-23T00:46:42;96246.75;;;-6.11;89.13
9225;BME280;4647;48.072;11.616;2023-01-23T00:49:13;96242.84;;;-6.19;89.14
9225;BME280;4647;48.072;11.616;2023-01-23T00:51:43;96248.59;;;-6.11;89.23
9225;BME280;4647;48.072;11.616;2023-01-23T00:54:12;96248.69;;;-5.98;88.66
9225;BME280;4647;48.072;11.616;2023-01-23T00:56:41;96253.78;;;-5.82;88.45
9225;BME280;4647;48.072;11.616;2023-01-23T00:59:10;96255.69;;;-5.88;87.82
9225;BME280;4647;48.072;11.616;2023-01-23T01:01:38;96245.31;;;-6.03;87.87
9225;BME280;4647;48.072;11.616;2023-01-23T01:04:07;96257.50;;;-6.07;88.96
9225;BME280;4647;48.072;11.616;2023-01-23T01:06:38;96255.38;;;-6.05;88.69
9225;BME280;4647;48.072;11.616;2023-01-23T01:09:07;96268.94;;;-5.93;88.43
9225;BME280;4647;48.072;11.616;2023-01-23T01:11:36;96273.84;;;-6.05;88.49
9225;BME280;4647;48.072;11.616;2023-01-23T01:14:05;96279.63;;;-6.03;89.03
9225;BME280;4647;48.072;11.616;2023-01-23T01:16:34;96274.41;;;-6.08;89.36
9225;BME280;4647;48.072;11.616;2023-01-23T01:19:05;96280.69;;;-6.04;89.04
9225;BME280;4647;48.072;11.616;2023-01-23T01:21:33;96283.88;;;-6.07;88.79
9225;BME280;4647;48.072;11.616;2023-01-23T01:24:07;96279.69;;;-6.08;88.26
9225;BME280;4647;48.072;11.616;2023-01-23T01:26:36;96279.72;;;-6.13;88.13
9225;BME280;4647;48.072;11.616;2023-01-23T01:29:05;96279.13;;;-6.05;88.09
9225;BME280;4647;48.072;11.616;2023-01-23T01:31:33;96275.69;;;-6.06;87.89
9225;BME280;4647;48.072;11.616;2023-01-23T01:34:02;96272.84;;;-6.09;87.75
9225;BME280;4647;48.072;11.616;2023-01-23T01:36:30;96275.69;;;-6.06;88.41
9225;BME280;4647;48.072;11.616;2023-01-23T01:39:00;96267.22;;;-6.03;88.26
9225;BME280;4647;48.072;11.616;2023-01-23T01:41:31;96255.09;;;-6.04;88.48
9225;BME280;4647;48.072;11.616;2023-01-23T01:44:00;96260.28;;;-5.75;87.66
9225;BME280;4647;48.072;11.616;2023-01-23T01:46:29;96252.94;;;-5.78;87.76
9225;BME280;4647;48.072;11.616;2023-01-23T01:49:04;96253.13;;;-5.93;88.06
9225;BME280;4647;48.072;11.616;2023-01-23T01:51:39;96252.44;;;-5.80;88.01
9225;BME280;4647;48.072;11.616;2023-01-23T01:54:13;96245.94;;;-5.69;87.61
9225;BME280;4647;48.072;11.616;2023-01-23T01:56:48;96247.59;;;-5.73;87.30
9225;BME280;4647;48.072;11.616;2023-01-23T01:59:20;96246.81;;;-5.73;87.30
9225;BME280;4647;48.072;11.616;2023-01-23T02:01:56;96241.25;;;-5.72;87.31
9225;BME280;4647;48.072;11.616;2023-01-23T02:04:29;96250.78;;;-5.76;87.15
9225;BME280;4647;48.072;11.616;2023-01-23T02:06:59;96254.94;;;-5.70;87.24
9225;BME280;4647;48.072;11.616;2023-01-23T02:09:29;96251.03;;;-5.30;85.96
9225;BME280;4647;48.072;11.616;2023-01-23T02:12:01;96257.97;;;-5.58;86.76
9225;BME280;4647;48.072;11.616;2023-01-23T02:14:30;96249.13;;;-5.48;86.56
9225;BME280;4647;48.072;11.616;2023-01-23T02:16:59;96240.81;;;-5.36;86.35
9225;BME280;4647;48.072;11.616;2023-01-23T02:22:35;96232.91;;;-5.36;86.54
9225;BME280;4647;48.072;11.616;2023-01-23T02:25:19;96241.59;;;-5.36;86.40
9225;BME280;4647;48.072;11.616;2023-01-23T02:27:53;96227.53;;;-5.31;86.98
9225;BME280;4647;48.072;11.616;2023-01-23T02:30:22;96232.03;;;-5.32;86.98
9225;BME280;4647;48.072;11.616;2023-01-23T02:32:53;96231.06;;;-5.17;86.46
9225;BME280;4647;48.072;11.616;2023-01-23T02:35:25;96226.56;;;-5.16;86.53
9225;BME280;4647;48.072;11.616;2023-01-23T02:38:03;96226.59;;;-5.21;86.67
9225;BME280;4647;48.072;11.616;2023-01-23T03:27:50;96232.59;;;-4.46;85.88
9225;BME280;4647;48.072;11.616;2023-01-23T03:30:22;96244.72;;;-4.58;86.40
9225;BME280;4647;48.072;11.616;2023-01-23T03:32:51;96244.75;;;-4.45;85.95
9225;BME280;4647;48.072;11.616;2023-01-23T03:35:23;96246.81;;;-4.42;85.85
9225;BME280;4647;48.072;11.616;2023-01-23T03:37:54;96231.69;;;-4.55;85.93
9225;BME280;4647;48.072;11.616;2023-01-23T03:40:29;96238.97;;;-4.47;86.46
9225;BME280;4647;48.072;11.616;2023-01-23T03:43:20;96247.41;;;-4.31;85.76
9225;BME280;4647;48.072;11.616;2023-01-23T03:45:51;96250.84;;;-4.30;86.16
9225;BME280;4647;48.072;11.616;2023-01-23T03:48:21;96251.31;;;-4.42;86.45
9225;BME280;4647;48.072;11.616;2023-01-23T03:50:50;96246.41;;;-4.49;86.08
9225;BME280;4647;48.072;11.616;2023-01-23T03:53:20;96242.47;;;-4.51;86.01
9225;BME280;4647;48.072;11.616;2023-01-23T03:55:50;96251.63;;;-4.44;86.23
9225;BME280;4647;48.072;11.616;2023-01-23T03:58:21;96246.41;;;-4.49;86.10
9225;BME280;4647;48.072;11.616;2023-01-23T04:00:50;96254.94;;;-4.38;86.28
9225;BME280;4647;48.072;11.616;2023-01-23T04:03:20;96258.19;;;-4.41;86.04
9225;BME280;4647;48.072;11.616;2023-01-23T04:05:54;96253.56;;;-4.49;86.45
9225;BME280;4647;48.072;11.616;2023-01-23T04:08:24;96256.31;;;-4.41;86.09
9225;BME280;4647;48.072;11.616;2023-01-23T04:11:00;96267.97;;;-4.42;86.21
9225;BME280;4647;48.072;11.616;2023-01-23T04:13:32;96264.94;;;-4.35;86.50
9225;BME280;4647;48.072;11.616;2023-01-23T04:16:02;96258.88;;;-4.36;86.13
9225;BME280;4647;48.072;11.616;2023-01-23T04:18:31;96269.16;;;-4.34;86.08
9225;BME280;4647;48.072;11.616;2023-01-23T04:21:00;96267.22;;;-4.28;86.20
9225;BME280;4647;48.072;11.616;2023-01-23T04:23:31;96261.22;;;-4.34;86.55
9225;BME280;4647;48.072;11.616;2023-01-23T04:25:59;96277.31;;;-4.30;86.53
9225;BME280;4647;48.072;11.616;2023-01-23T04:28:28;96279.88;;;-4.25;86.30
9225;BME280;4647;48.072;11.616;2023-01-23T04:30:59;96278.09;;;-4.30;86.67
9225;BME280;4647;48.072;11.616;2023-01-23T04:33:31;96270.50;;;-4.18;85.93
9225;BME280;4647;48.072;11.616;2023-01-23T04:36:04;96271.56;;;-4.19;86.16
9225;BME280;4647;48.072;11.616;2023-01-23T04:38:33;96278.44;;;-4.18;86.08
9225;BME280;4647;48.072;11.616;2023-01-23T04:41:17;96275.19;;;-4.15;85.85
9225;BME280;4647;48.072;11.616;2023-01-23T04:43:46;96274.59;;;-4.12;85.89
9225;BME280;4647;48.072;11.616;2023-01-23T04:46:18;96278.44;;;-4.04;85.65
9225;BME280;4647;48.072;11.616;2023-01-23T04:48:53;96276.13;;;-3.92;85.40
9225;BME280;4647;48.072;11.616;2023-01-23T04:51:24;96269.34;;;-3.98;85.38
9225;BME280;4647;48.072;11.616;2023-01-23T04:53:53;96275.34;;;-3.92;85.53
9225;BME280;4647;48.072;11.616;2023-01-23T04:56:24;96273.75;;;-3.93;85.56
9225;BME280;4647;48.072;11.616;2023-01-23T04:58:55;96277.00;;;-3.96;85.56
9225;BME280;4647;48.072;11.616;2023-01-23T05:01:27;96278.66;;;-3.87;85.46
9225;BME280;4647;48.072;11.616;2023-01-23T05:03:59;96268.28;;;-3.83;85.42
9225;BME280;4647;48.072;11.616;2023-01-23T05:06:30;96271.22;;;-3.85;85.38
9225;BME280;4647;48.072;11.616;2023-01-23T05:08:59;96271.22;;;-3.85;85.82
9225;BME280;4647;48.072;11.616;2023-01-23T05:11:36;96267.50;;;-3.84;85.54
9225;BME280;4647;48.072;11.616;2023-01-23T05:14:07;96264.34;;;-3.86;84.96
9225;BME280;4647;48.072;11.616;2023-01-23T05:16:38;96264.84;;;-3.84;85.65
9225;BME280;4647;48.072;11.616;2023-01-23T05:19:16;96272.00;;;-3.84;85.02
9225;BME280;4647;48.072;11.616;2023-01-23T05:21:45;96277.97;;;-3.79;85.14
9225;BME280;4647;48.072;11.616;2023-01-23T05:24:16;96277.09;;;-3.88;85.54
9225;BME280;4647;48.072;11.616;2023-01-23T05:26:45;96285.63;;;-3.91;85.54
9225;BME280;4647;48.072;11.616;2023-01-23T05:29:14;96295.81;;;-3.98;85.51
9225;BME280;4647;48.072;11.616;2023-01-23T05:31:56;96299.16;;;-3.92;85.42
9225;BME280;4647;48.072;11.616;2023-01-23T05:34:37;96303.66;;;-3.93;85.29
9225;BME280;4647;48.072;11.616;2023-01-23T05:37:16;96299.53;;;-3.99;85.50
9225;BME280;4647;48.072;11.616;2023-01-23T05:39:49;96301.69;;;-4.01;85.95
9225;BME280;4647;48.072;11.616;2023-01-23T05:42:19;96298.56;;;-3.89;85.45
9225;BME280;4647;48.072;11.616;2023-01-23T05:45:10;96295.53;;;-3.83;85.51
9225;BME280;4647;48.072;11.616;2023-01-23T05:47:43;96306.44;;;-3.71;84.88
9225;BME280;4647;48.072;11.616;2023-01-23T05:50:17;96301.75;;;-3.46;84.53
9225;BME280;4647;48.072;11.616;2023-01-23T05:52:48;96302.31;;;-3.35;83.62
9225;BME280;4647;48.072;11.616;2023-01-23T05:55:17;96296.56;;;-3.51;84.02
9225;BME280;4647;48.072;11.616;2023-01-23T05:57:47;96296.13;;;-3.58;84.57
9225;BME280;4647;48.072;11.616;2023-01-23T06:00:39;96292.72;;;-3.45;83.62
9225;BME280;4647;48.072;11.616;2023-01-23T06:03:39;96292.81;;;-3.36;84.00
9225;BME280;4647;48.072;11.616;2023-01-23T06:06:30;96298.72;;;-3.53;84.66
9225;BME280;4647;48.072;11.616;2023-01-23T06:08:58;96300.06;;;-3.56;84.86
9225;BME280;4647;48.072;11.616;2023-01-23T06:11:28;96304.41;;;-3.46;84.79
9225;BME280;4647;48.072;11.616;2023-01-23T06:13:57;96309.00;;;-3.52;84.67
9225;BME280;4647;48.072;11.616;2023-01-23T06:16:26;96314.22;;;-3.47;85.02
9225;BME280;4647;48.072;11.616;2023-01-23T06:18:58;96312.75;;;-3.53;85.30
9225;BME280;4647;48.072;11.616;2023-01-23T06:21:29;96320.38;;;-3.51;85.25
9225;BME280;4647;48.072;11.616;2023-01-23T06:23:59;96317.25;;;-3.53;85.35
9225;BME280;4647;48.072;11.616;2023-01-23T06:26:28;96321.25;;;-3.56;85.35
9225;BME280;4647;48.072;11.616;2023-01-23T06:28:56;96327.03;;;-3.67;85.53
9225;BME280;4647;48.072;11.616;2023-01-23T06:31:25;96316.53;;;-3.73;85.74
9225;BME280;4647;48.072;11.616;2023-01-23T06:34:01;96313.78;;;-3.67;85.61
9225;BME280;4647;48.072;11.616;2023-01-23T06:36:37;96304.56;;;-3.56;85.37
9225;BME280;4647;48.072;11.616;2023-01-23T06:39:06;96311.84;;;-3.34;85.01
9225;BME280;4647;48.072;11.616;2023-01-23T06:41:39;96313.53;;;-3.25;84.22
9225;BME280;4647;48.072;11.616;2023-01-23T06:44:10;96308.78;;;-3.00;83.40
9225;BME280;4647;48.072;11.616;2023-01-23T06:46:39;96302.69;;;-3.15;83.76
9225;BME280;4647;48.072;11.616;2023-01-23T06:49:11;96308.97;;;-3.11;83.84
9225;BME280;4647;48.072;11.616;2023-01-23T06:51:39;96312.81;;;-3.17;84.27
9225;BME280;4647;48.072;11.616;2023-01-23T06:54:10;96314.69;;;-3.03;83.57
9225;BME280;4647;48.072;11.616;2023-01-23T06:56:39;96309.16;;;-2.93;83.10
9225;BME280;4647;48.072;11.616;2023-01-23T06:59:09;96320.75;;;-3.17;84.01
9225;BME280;4647;48.072;11.616;2023-01-23T07:01:39;96318.22;;;-3.22;84.65
9225;BME280;4647;48.072;11.616;2023-01-23T07:04:10;96318.78;;;-3.11;84.71
9225;BME280;4647;48.072;11.616;2023-01-23T07:06:41;96321.47;;;-3.25;86.36
9225;BME280;4647;48.072;11.616;2023-01-23T07:09:12;96332.25;;;-3.35;87.21
9225;BME280;4647;48.072;11.616;2023-01-23T07:11:48;96314.47;;;-3.34;87.60
9225;BME280;4647;48.072;11.616;2023-01-23T07:14:16;96330.38;;;-3.21;87.31
9225;BME280;4647;48.072;11.616;2023-01-23T07:16:48;96334.00;;;-3.17;87.73
9225;BME280;4647;48.072;11.616;2023-01-23T07:19:19;96343.03;;;-3.18;87.83
9225;BME280;4647;48.072;11.616;2023-01-23T07:21:48;96350.41;;;-3.15;87.92
9225;BME280;4647;48.072;11.616;2023-01-23T07:24:17;96342.06;;;-3.22;88.20
9225;BME280;4647;48.072;11.616;2023-01-23T07:26:45;96356.59;;;-3.19;88.42
9225;BME280;4647;48.072;11.616;2023-01-23T07:29:15;96347.56;;;-3.04;87.86
9225;BME280;4647;48.072;11.616;2023-01-23T07:31:44;96350.81;;;-3.07;87.99
9225;BME280;4647;48.072;11.616;2023-01-23T07:34:12;96352.75;;;-3.13;88.17
9225;BME280;4647;48.072;11.616;2023-01-23T07:36:43;96349.03;;;-3.12;88.16
9225;BME280;4647;48.072;11.616;2023-01-23T07:39:12;96334.09;;;-2.94;87.85
9225;BME280;4647;48.072;11.616;2023-01-23T07:41:40;96336.25;;;-3.10;88.66
9225;BME280;4647;48.072;11.616;2023-01-23T07:44:13;96325.16;;;-3.12;88.70
9225;BME280;4647;48.072;11.616;2023-01-23T07:46:44;96348.44;;;-2.95;88.99
9225;BME280;4647;48.072;11.616;2023-01-23T07:49:13;96351.97;;;-3.00;89.17
9225;BME280;4647;48.072;11.616;2023-01-23T07:51:44;96353.84;;;-3.00;89.57
9225;BME280;4647;48.072;11.616;2023-01-23T07:54:13;96346.44;;;-2.90;89.56
9225;BME280;4647;48.072;11.616;2023-01-23T07:56:41;96358.16;;;-3.04;89.99
9225;BME280;4647;48.072;11.616;2023-01-23T07:59:10;96360.81;;;-3.04;90.44
9225;BME280;4647;48.072;11.616;2023-01-23T08:01:39;96348.50;;;-2.87;90.54
9225;BME280;4647;48.072;11.616;2023-01-23T08:04:08;96366.09;;;-2.77;89.83
9225;BME280;4647;48.072;11.616;2023-01-23T08:06:37;96358.44;;;-2.79;89.98
9225;BME280;4647;48.072;11.616;2023-01-23T08:09:08;96348.44;;;-2.82;89.75
9225;BME280;4647;48.072;11.616;2023-01-23T08:11:37;96350.78;;;-2.80;90.31
9225;BME280;4647;48.072;11.616;2023-01-23T08:14:05;96360.78;;;-2.91;91.10
9225;BME280;4647;48.072;11.616;2023-01-23T08:16:34;96357.66;;;-2.79;91.02
9225;BME280;4647;48.072;11.616;2023-01-23T08:19:05;96348.78;;;-2.74;91.42
9225;BME280;4647;48.072;11.616;2023-01-23T08:21:34;96349.66;;;-2.65;90.81
9225;BME280;4647;48.072;11.616;2023-01-23T08:24:03;96342.09;;;-2.58;90.58
9225;BME280;4647;48.072;11.616;2023-01-23T08:26:35;96356.38;;;-2.82;91.11
9225;BME280;4647;48.072;11.616;2023-01-23T08:29:04;96346.69;;;-2.64;91.42
9225;BME280;4647;48.072;11.616;2023-01-23T08:31:32;96351.69;;;-2.62;90.79
9225;BME280;4647;48.072;11.616;2023-01-23T08:34:01;96373.50;;;-2.52;90.71
9225;BME280;4647;48.072;11.616;2023-01-23T08:36:29;96375.31;;;-2.38;90.72
9225;BME280;4647;48.072;11.616;2023-01-23T08:38:59;96367.28;;;-2.47;90.21
9225;BME280;4647;48.072;11.616;2023-01-23T08:41:27;96358.91;;;-2.40;89.80
9225;BME280;4647;48.072;11.616;2023-01-23T08:43:59;96353.38;;;-2.30;89.68
9225;BME280;4647;48.072;11.616;2023-01-23T08:46:28;96362.78;;;-2.24;89.37
9225;BME280;4647;48.072;11.616;2023-01-23T08:48:57;96360.78;;;-2.41;90.08
9225;BME280;4647;48.072;11.616;2023-01-23T08:51:26;96364.19;;;-2.27;89.29
9225;BME280;4647;48.072;11.616;2023-01-23T08:53:55;96370.59;;;-2.28;89.19
9225;BME280;4647;48.072;11.616;2023-01-23T08:56:24;96363.09;;;-2.26;89.18
9225;BME280;4647;48.072;11.616;2023-01-23T08:58:53;96369.91;;;-2.33;89.12
9225;BME280;4647;48.072;11.616;2023-01-23T09:01:25;96370.63;;;-2.19;88.86
9225;BME280;4647;48.072;11.616;2023-01-23T09:03:55;96369.94;;;-2.11;88.16
9225;BME280;4647;48.072;11.616;2023-01-23T09:06:24;96378.38;;;-2.09;88.17
9225;BME280;4647;48.072;11.616;2023-01-23T09:08:52;96369.56;;;-1.96;87.65
9225;BME280;4647;48.072;11.616;2023-01-23T09:11:21;96371.56;;;-2.01;87.54
9225;BME280;4647;48.072;11.616;2023-01-23T09:13:50;96374.75;;;-1.91;87.47
9225;BME280;4647;48.072;11.616;2023-01-23T09:16:18;96380.78;;;-1.99;87.14
9225;BME280;4647;48.072;11.616;2023-01-23T09:18:49;96373.56;;;-2.07;87.54
9225;BME280;4647;48.072;11.616;2023-01-23T09:21:18;96375.47;;;-1.99;87.10
9225;BME280;4647;48.072;11.616;2023-01-23T09:23:46;96375.59;;;-2.04;87.21
9225;BME280;4647;48.072;11.616;2023-01-23T09:26:15;96364.84;;;-1.99;87.26
9225;BME280;4647;48.072;11.616;2023-01-23T09:28:43;96358.28;;;-1.79;86.37
9225;BME280;4647;48.072;11.616;2023-01-23T09:31:12;96361.81;;;-1.61;86.07
9225;BME280;4647;48.072;11.616;2023-01-23T09:33:43;96351.50;;;-1.63;85.87
9225;BME280;4647;48.072;11.616;2023-01-23T09:36:14;96352.34;;;-1.45;85.22
9225;BME280;4647;48.072;11.616;2023-01-23T09:38:43;96352.44;;;-1.59;85.24
9225;BME280;4647;48.072;11.616;2023-01-23T09:41:16;96361.44;;;-1.68;85.50
9225;BME280;4647;48.072;11.616;2023-01-23T09:43:51;96379.47;;;-1.88;86.67
9225;BME280;4647;48.072;11.616;2023-01-23T09:46:24;96380.75;;;-1.85;86.57
9225;BME280;4647;48.072;11.616;2023-01-23T09:48:59;96375.00;;;-1.78;85.73
9225;BME280;4647;48.072;11.616;2023-01-23T09:51:43;96374.63;;;-1.86;86.22
9225;BME280;4647;48.072;11.616;2023-01-23T09:54:22;96373.78;;;-1.72;85.90
9225;BME280;4647;48.072;11.616;2023-01-23T09:56:56;96380.66;;;-1.71;85.49
9225;BME280;4647;48.072;11.616;2023-01-23T09:59:33;96372.28;;;-1.65;85.66
9225;BME280;4647;48.072;11.616;2023-01-23T10:02:07;96371.25;;;-1.46;84.98
9225;BME280;4647;48.072;11.616;2023-01-23T10:04:40;96365.06;;;-1.33;84.51
9225;BME280;4647;48.072;11.616;2023-01-23T10:07:25;96359.63;;;-1.28;83.96
9225;BME280;4647;48.072;11.616;2023-01-23T10:10:04;96358.97;;;-1.34;84.19
9225;BME280;4647;48.072;11.616;2023-01-23T10:12:42;96356.31;;;-1.34;84.34
9225;BME280;4647;48.072;11.616;2023-01-23T10:15:19;96345.22;;;-1.36;84.57
9225;BME280;4647;48.072;11.616;2023-01-23T10:17:59;96339.88;;;-1.36;84.14
9225;BME280;4647;48.072;11.616;2023-01-23T10:20:43;96334.47;;;-1.62;84.90
9225;BME280;4647;48.072;11.616;2023-01-23T10:23:30;96335.25;;;-1.61;85.32
9225;BME280;4647;48.072;11.616;2023-01-23T10:26:03;96345.56;;;-1.60;85.04
9225;BME280;4647;48.072;11.616;2023-01-23T10:28:34;96334.72;;;-1.41;84.92
9225;BME280;4647;48.072;11.616;2023-01-23T10:31:07;96338.19;;;-1.32;84.33
9225;BME280;4647;48.072;11.616;2023-01-23T10:33:46;96338.88;;;-1.17;83.77
9225;BME280;4647;48.072;11.616;2023-01-23T10:36:19;96342.00;;;-1.15;83.78
9225;BME280;4647;48.072;11.616;2023-01-23T10:38:58;96341.94;;;-1.24;84.29
9225;BME280;4647;48.072;11.616;2023-01-23T10:41:27;96336.00;;;-1.30;84.31
9225;BME280;4647;48.072;11.616;2023-01-23T10:43:56;96348.13;;;-1.06;83.94
9225;BME280;4647;48.072;11.616;2023-01-23T10:46:29;96332.50;;;-0.99;83.13
9225;BME280;4647;48.072;11.616;2023-01-23T10:49:00;96329.41;;;-0.84;82.87
9225;BME280;4647;48.072;11.616;2023-01-23T10:51:44;96323.47;;;-0.81;82.29
9225;BME280;4647;48.072;11.616;2023-01-23T10:54:20;96318.59;;;-0.79;82.78
9225;BME280;4647;48.072;11.616;2023-01-23T10:56:52;96318.31;;;-0.51;81.31
9225;BME280;4647;48.072;11.616;2023-01-23T10:59:34;96315.81;;;-0.56;81.70
9225;BME280;4647;48.072;11.616;2023-01-23T11:02:18;96310.50;;;-0.56;81.72
9225;BME280;4647;48.072;11.616;2023-01-23T11:04:49;96302.19;;;-0.55;81.54
9225;BME280;4647;48.072;11.616;2023-01-23T11:07:20;96310.94;;;-0.72;82.23
9225;BME280;4647;48.072;11.616;2023-01-23T11:09:54;96302.94;;;-0.72;82.39
9225;BME280;4647;48.072;11.616;2023-01-23T11:12:25;96303.91;;;-0.85;83.01
9225;BME280;4647;48.072;11.616;2023-01-23T11:15:10;96302.66;;;-0.70;82.47
9225;BME280;4647;48.072;11.616;2023-01-23T11:17:40;96303.28;;;-0.73;82.42
9225;BME280;4647;48.072;11.616;2023-01-23T11:20:11;96288.72;;;-0.58;81.65
9225;BME280;4647;48.072;11.616;2023-01-23T11:22:59;96283.09;;;-0.48;81.70
9225;BME280;4647;48.072;11.616;2023-01-23T11:25:32;96276.06;;;-0.62;82.08
9225;BME280;4647;48.072;11.616;2023-01-23T11:28:18;96279.97;;;-0.59;82.60
9225;BME280;4647;48.072;11.616;2023-01-23T11:30:50;96280.44;;;-0.57;82.61
9225;BME280;4647;48.072;11.616;2023-01-23T11:33:33;96278.06;;;-0.76;83.29
9225;BME280;4647;48.072;11.616;2023-01-23T11:36:13;96273.41;;;-0.62;83.09
9225;BME280;4647;48.072;11.616;2023-01-23T11:38:52;96271.50;;;-0.52;82.59
9225;BME280;4647;48.072;11.616;2023-01-23T11:41:27;96273.69;;;-0.54;82.62
9225;BME280;4647;48.072;11.616;2023-01-23T11:43:57;96287.31;;;-0.65;83.31
9225;BME280;4647;48.072;11.616;2023-01-23T11:49:27;96280.25;;;-0.78;84.29
9225;BME280;4647;48.072;11.616;2023-01-23T11:52:12;96276.03;;;-0.79;84.43
9225;BME280;4647;48.072;11.616;2023-01-23T11:55:01;96274.47;;;-0.71;84.33
9225;BME280;4647;48.072;11.616;2023-01-23T11:57:44;96262.44;;;-0.95;85.25
9225;BME280;4647;48.072;11.616;2023-01-23T12:00:27;96252.41;;;-0.80;84.94
9225;BME280;4647;48.072;11.616;2023-01-23T12:03:27;96253.34;;;-0.59;84.07
9225;BME280;4647;48.072;11.616;2023-01-23T12:06:15;96243.94;;;-0.39;83.08
9225;BME280;4647;48.072;11.616;2023-01-23T12:08:55;96242.69;;;-0.50;83.46
9225;BME280;4647;48.072;11.616;2023-01-23T12:11:32;96248.03;;;-0.42;83.29
9225;BME280;4647;48.072;11.616;2023-01-23T12:14:12;96246.09;;;-0.15;82.34
9225;BME280;4647;48.072;11.616;2023-01-23T12:16:55;96238.59;;;-0.22;82.43
9225;BME280;4647;48.072;11.616;2023-01-23T12:19:42;96232.63;;;-0.19;82.32
9225;BME280;4647;48.072;11.616;2023-01-23T12:22:16;96237.94;;;-0.10;81.87
9225;BME280;4647;48.072;11.616;2023-01-23T12:24:58;96236.06;;;-0.10;81.99
9225;BME280;4647;48.072;11.616;2023-01-23T12:27:37;96231.06;;;-0.11;81.77
9225;BME280;4647;48.072;11.616;2023-01-23T12:30:35;96223.25;;;-0.16;81.28
9225;BME280;4647;48.072;11.616;2023-01-23T12:33:23;96231.41;;;-0.30;82.50
9225;BME280;4647;48.072;11.616;2023-01-23T12:36:12;96222.44;;;-0.25;82.47
9225;BME280;4647;48.072;11.616;2023-01-23T12:38:51;96219.19;;;-0.48;83.22
9225;BME280;4647;48.072;11.616;2023-01-23T12:41:30;96215.41;;;-0.30;82.91
9225;BME280;4647;48.072;11.616;2023-01-23T12:44:09;96218.88;;;-0.21;82.99
9225;BME280;4647;48.072;11.616;2023-01-23T12:46:47;96224.19;;;-0.29;83.51
9225;BME280;4647;48.072;11.616;2023-01-23T12:49:22;96223.59;;;-0.44;84.27
9225;BME280;4647;48.072;11.616;2023-01-23T12:51:59;96226.22;;;-0.26;84.25
9225;BME280;4647;48.072;11.616;2023-01-23T12:54:36;96237.34;;;-0.16;83.40
9225;BME280;4647;48.072;11.616;2023-01-23T12:57:09;96224.03;;;-0.16;83.52
9225;BME280;4647;48.072;11.616;2023-01-23T12:59:53;96220.53;;;-0.08;83.22
9225;BME280;4647;48.072;11.616;2023-01-23T13:02:33;96216.66;;;-0.27;83.21
9225;BME280;4647;48.072;11.616;2023-01-23T13:05:13;96218.28;;;-0.44;84.63
9225;BME280;4647;48.072;11.616;2023-01-23T13:07:52;96227.34;;;-0.36;83.74
9225;BME280;4647;48.072;11.616;2023-01-23T13:10:48;96231.22;;;-0.25;83.60
9225;BME280;4647;48.072;11.616;2023-01-23T13:13:36;96223.44;;;-0.39;84.03
9225;BME280;4647;48.072;11.616;2023-01-23T13:16:09;96221.66;;;-0.26;83.34
9225;BME280;4647;48.072;11.616;2023-01-23T13:18:51;96226.88;;;-0.38;83.85
9225;BME280;4647;48.072;11.616;2023-01-23T13:21:32;96218.41;;;-0.49;84.22
9225;BME280;4647;48.072;11.616;2023-01-23T13:24:28;96224.22;;;-0.38;84.13
9225;BME280;4647;48.072;11.616;2023-01-23T13:27:39;96222.66;;;-0.39;83.53
9225;BME280;4647;48.072;11.616;2023-01-23T13:36:28;96236.44;;;-0.37;83.71
9225;BME280;4647;48.072;11.616;2023-01-23T13:39:22;96230.34;;;-0.55;84.71
9225;BME280;4647;48.072;11.616;2023-01-23T13:48:17;96226.56;;;-0.54;84.97
9225;BME280;4647;48.072;11.616;2023-01-23T13:51:11;96230.28;;;-0.29;84.59
9225;BME280;4647;48.072;11.616;2023-01-23T13:53:47;96230.44;;;-0.17;83.44
9225;BME280;4647;48.072;11.616;2023-01-23T13:56:29;96233.09;;;-0.25;84.34
9225;BME280;4647;48.072;11.616;2023-01-23T13:59:15;96237.03;;;-0.23;84.06
9225;BME280;4647;48.072;11.616;2023-01-23T14:01:54;96234.69;;;-0.33;84.45
9225;BME280;4647;48.072;11.616;2023-01-23T14:04:41;96240.81;;;-0.33;84.57
9225;BME280;4647;48.072;11.616;2023-01-23T14:07:25;96236.44;;;-0.37;84.57
9225;BME280;4647;48.072;11.616;2023-01-23T14:10:29;96241.13;;;-0.34;84.51
9225;BME280;4647;48.072;11.616;2023-01-23T14:13:03;96235.63;;;-0.29;84.48
9225;BME280;4647;48.072;11.616;2023-01-23T14:15:33;96237.06;;;-0.40;84.86
9225;BME280;4647;48.072;11.616;2023-01-23T14:18:22;96233.94;;;-0.42;85.45
9225;BME280;4647;48.072;11.616;2023-01-23T14:20:52;96228.41;;;-0.28;84.93
9225;BME280;4647;48.072;11.616;2023-01-23T14:23:27;96224.22;;;-0.38;84.83
9225;BME280;4647;48.072;11.616;2023-01-23T14:25:59;96237.84;;;-0.40;85.23
9225;BME280;4647;48.072;11.616;2023-01-23T14:28:28;96227.50;;;-0.33;85.33
9225;BME280;4647;48.072;11.616;2023-01-23T14:31:00;96227.78;;;-0.25;84.52
9225;BME280;4647;48.072;11.616;2023-01-23T14:33:39;96227.16;;;-0.31;85.18
9225;BME280;4647;48.072;11.616;2023-01-23T14:36:14;96216.34;;;-0.26;85.20
9225;BME280;4647;48.072;11.616;2023-01-23T14:38:44;96220.75;;;-0.30;85.22
9225;BME280;4647;48.072;11.616;2023-01-23T14:41:18;96216.84;;;-0.33;84.98
9225;BME280;4647;48.072;11.616;2023-01-23T14:43:49;96226.25;;;-0.35;85.47
9225;BME280;4647;48.072;11.616;2023-01-23T14:46:30;96229.19;;;-0.28;84.94
9225;BME280;4647;48.072;11.616;2023-01-23T14:49:00;96224.97;;;-0.20;84.90
9225;BME280;4647;48.072;11.616;2023-01-23T14:51:31;96220.56;;;-0.25;85.01